Station: Maningrida Airport

  Atmospheric Gas Attenuation - ITU Rec 676-11   --------------- db/100km ---------------
Date Time Temp RH % AH g/m3 Dew Point Wind Direction Speed kph Gust kph Barometer mB Rainfall Since 9am 24GHz 47GHz 76GHz 122GHz 134GHz 241GHz
11 21:10 28.4 77 21.41 24 13 15 1010.4 0 45.7 42.8 84.8 224.6 250.9 871.9
11 21:00 28.2 81 22.27 24.6 7 13 1010.2 0 47.6 44.6 89.2 236.2 265.1 921.3
11 20:50 28.2 80 22 24.4 6 7 1009.6 0 47.0 44.0 87.8 232.6 260.7 906.0
11 20:40 28.3 80 22.12 24.5 6 6 1009.6 0 47.2 44.2 88.3 233.8 262.2 911.4
11 20:30 28.4 80 22.24 24.6 4 7 1009.6 0 47.5 44.4 88.8 235.1 263.8 916.8
11 20:20 28.3 79 21.84 24.3 6 6 1009.4 0 46.6 43.7 86.9 230.2 257.8 895.9
11 20:10 28.5 78 21.8 24.3 6 7 1009.2 0 46.5 43.5 86.5 229.0 256.4 891.2
11 20:00 28.6 77 21.64 24.2 4 6 1009.1 0 46.2 43.1 85.6 226.7 253.6 881.3
11 19:50 28.6 77 21.64 24.2 4 6 1008.9 0 46.2 43.1 85.6 226.6 253.5 881.2
11 19:40 28.6 75 21.08 23.9 6 6 1008.8 0 45.0 42.0 82.9 219.5 244.8 850.9
11 19:30 28.6 75 21.08 23.7 6 6 1008.6 0 45.0 42.0 82.9 219.5 244.8 850.8
11 19:20 28.8 75 21.31 23.9 6 7 1008.5 0 45.5 42.3 83.8 221.8 247.7 860.8
11 19:10 29 73 20.97 23.7 6 6 1008.4 0 44.7 41.6 81.9 217.0 241.8 840.4
11 19:00 29.1 72 20.8 23.5 7 11 1008.3 0 44.4 41.2 81.0 214.5 238.8 830.2
11 18:50 29.1 73 21.09 23.8 7 7 1008.3 0 45.0 41.8 82.4 218.1 243.3 845.6
11 18:40 29.2 72 20.91 23.6 11 11 1008.3 0 44.6 41.4 81.4 215.6 240.2 834.9
11 18:30 29.4 71 20.85 23.6 9 13 1008.3 0 44.4 41.2 80.9 214.3 238.6 829.6
11 18:20 29.6 69 20.48 23.3 11 11 1008.2 0 43.6 40.4 79.0 209.2 232.4 808.0
11 18:10 29.8 69 20.7 23.5 11 13 1008.1 0 44.1 40.7 79.8 211.3 235.1 817.3
11 18:00 30.1 67 20.43 23.3 11 15 1008.1 0 43.5 40.0 78.3 207.2 230.1 800.1
11 17:50 30.3 65 20.04 23.2 11 13 1008 0 42.6 39.2 76.3 202.0 223.8 778.0
11 17:40 30.4 67 20.77 23.6 13 15 1007.9 0 44.1 40.5 79.5 210.5 234.2 814.4
11 17:30 30.7 68 21.42 24.1 11 15 1007.9 0 45.5 41.6 82.2 217.6 243.0 844.9
11 17:20 30.7 66 20.79 23.6 13 13 1007.8 0 44.2 40.4 79.3 209.9 233.6 812.2
11 17:10 30.2 67 20.54 23.4 13 15 1007.8 0 43.7 40.2 78.6 208.2 231.4 804.6
11 17:00 30.3 67 20.65 23.5 13 17 1007.7 0 43.9 40.3 79.0 209.3 232.7 809.1
11 16:50 30.4 66 20.46 23.3 11 13 1007.6 0 43.5 39.9 78.1 206.7 229.6 798.2
11 16:40 30.6 65 20.36 23.3 11 13 1007.5 0 43.3 39.7 77.4 204.9 227.5 791.0
11 16:30 31.2 63 20.38 23.3 15 20 1007.4 0 43.2 39.4 76.9 203.6 226.0 785.8
11 16:20 31.7 63 20.94 23.8 15 17 1007.3 0 44.4 40.2 78.9 208.9 232.6 809.0
11 16:10 31.5 61 20.06 23.1 15 15 1007.3 0 42.5 38.7 75.2 199.0 220.4 766.5
11 16:00 31.7 62 20.6 23.5 17 24 1007.2 0 43.6 39.6 77.3 204.8 227.6 791.6
11 15:50 31.9 60 20.15 23.4 19 20 1007.1 0 42.7 38.7 75.2 199.0 220.5 766.9
11 15:40 31.7 62 20.6 23.5 17 19 1007.2 0 43.6 39.6 77.3 204.8 227.6 791.6
11 15:30 31.7 60 19.94 23 15 20 1007.3 0 42.3 38.4 74.4 197.1 218.1 758.6
11 15:20 31.7 60 19.94 23.2 15 17 1007.3 0 42.3 38.4 74.4 197.1 218.1 758.6
11 15:10 31.8 58 19.38 22.5 15 17 1007.5 0 41.1 37.4 71.9 190.4 209.9 730.0
11 15:00 32.2 58 19.8 22.9 15 20 1007.5 0 41.9 37.9 73.4 194.2 214.7 746.8
11 14:50 32 57 19.25 22.4 13 17 1007.6 0 40.8 37.1 71.2 188.4 207.6 721.8
11 14:40 31.8 59 19.71 22.8 17 19 1007.7 0 41.8 38.0 73.4 194.2 214.6 746.4
11 14:30 31.7 60 19.94 23 15 20 1007.8 0 42.3 38.4 74.5 197.1 218.2 758.8
11 14:20 31.6 61 20.16 23.2 19 20 1008 0 42.7 38.9 75.5 200.0 221.7 770.9
11 14:10 31.7 60 19.94 23.2 19 20 1008.1 0 42.3 38.4 74.5 197.2 218.3 759.0
11 14:00 31.5 63 20.71 23.6 19 24 1008.2 0 43.9 39.9 78.1 206.8 230.0 799.8
11 13:50 32 60 20.26 23.3 19 22 1008.3 0 42.9 38.9 75.6 200.2 222.0 772.1
11 13:40 32.3 53 18.19 21.5 13 15 1008.4 0 38.6 35.2 66.5 175.9 192.3 668.6
11 13:30 32.3 59 20.24 23.5 11 13 1008.6 0 42.8 38.7 75.2 199.2 220.9 768.2
11 13:20 31.8 60 20.05 23.3 17 19 1008.8 0 42.5 38.6 74.9 198.3 219.6 763.8
11 13:10 31.8 63 21.05 23.9 15 19 1008.9 0 44.6 40.4 79.4 210.2 234.2 814.4
11 13:00 32 65 21.95 24.6 15 22 1009 0 46.4 41.9 83.3 220.5 246.9 858.6
11 12:50 31.8 63 21.05 23.9 15 19 1009.1 0 44.6 40.4 79.4 210.2 234.2 814.5
11 12:40 32.2 62 21.16 24 15 17 1009.2 0 44.7 40.4 79.5 210.4 234.6 815.9
11 12:30 32 65 21.95 24.6 13 17 1009.4 0 46.4 42.0 83.3 220.6 247.0 858.9
11 12:20 31.4 63 20.6 23.5 17 19 1009.5 0 43.7 39.8 77.8 206.0 228.9 796.0
11 12:10 31.5 64 21.04 23.9 15 17 1009.6 0 44.6 40.6 79.7 211.0 235.1 817.5
11 12:00 31.9 65 21.83 24.7 15 24 1009.8 0 46.2 41.8 82.9 219.5 245.6 854.0
11 11:50 31.8 62 20.72 23.6 13 17 1009.9 0 43.9 39.8 78.0 206.4 229.5 798.1
11 11:40 31.3 63 20.49 23.4 17 19 1009.9 0 43.4 39.7 77.4 205.0 227.7 791.6
11 11:30 31.8 63 21.05 24.1 13 19 1010.2 0 44.6 40.5 79.5 210.4 234.4 815.1
11 11:20 31.5 63 20.71 23.6 13 17 1010.2 0 43.9 40.0 78.2 207.1 230.3 800.9
11 11:10 31.5 64 21.04 23.9 13 15 1010.3 0 44.6 40.6 79.7 211.1 235.2 817.8
11 11:00 31.4 61 19.95 23.2 13 17 1010.5 0 42.3 38.7 75.0 198.4 219.6 763.7
11 10:50 31.3 63 20.49 23.4 11 13 1010.5 0 43.4 39.7 77.5 205.1 227.8 792.0
11 10:40 31.4 64 20.93 23.8 11 13 1010.6 0 44.3 40.4 79.4 210.1 233.9 813.4
11 10:30 30.8 66 20.9 23.7 9 13 1010.8 0 44.3 40.7 79.9 211.4 235.4 818.4
11 10:20 30.7 65 20.47 23.4 6 7 1010.7 0 43.5 39.9 78.0 206.5 229.3 797.3
11 10:10 30.3 69 21.27 24 7 9 1010.9 0 45.2 41.6 82.1 217.4 242.5 843.2
11 10:00 30.1 69 21.04 23.8 9 13 1011 0 44.7 41.3 81.3 215.1 239.7 833.4
11 09:50 30.2 69 21.16 23.9 9 11 1010.9 0 45.0 41.5 81.7 216.3 241.2 838.5
11 09:40 30 70 21.23 23.9 9 11 1011 0 45.1 41.7 82.2 217.7 242.9 844.5
11 09:30 29.8 71 21.3 24 6 9 1011.1 0 45.3 41.9 82.8 219.2 244.6 850.5
11 09:20 29.7 69 20.59 23.4 7 7 1011 0 43.8 40.7 79.6 210.7 234.2 814.2
11 09:10 29.9 69 20.82 23.6 2 4 1010.9 0 44.3 41.0 80.4 213.0 237.0 824.0
11 09:00 29.7 71 21.19 23.9 7 11 1011 0 45.1 41.8 82.4 218.1 243.3 845.7
11 08:50 29.5 72 21.25 24.1 7 9 1010.9 0 45.2 42.0 82.9 219.4 244.8 851.1
11 08:40 29.1 75 21.66 24.2 9 11 1011 0 46.1 43.0 85.3 225.7 252.5 877.6
11 08:30 29 74 21.26 23.9 6 9 1011.1 0 45.3 42.3 83.5 221.0 246.7 857.4
11 08:20 28.5 75 20.96 23.6 6 7 1010.9 0 44.7 41.9 82.6 218.7 243.6 846.8
11 08:10 28.2 76 20.9 23.6 6 7 1010.9 0 44.6 42.0 82.6 218.8 243.7 847.0
11 08:00 27.9 78 21.1 23.7 6 7 1010.9 0 45.1 42.5 83.9 222.2 247.8 861.2
11 07:50 27.5 81 21.43 23.9 4 6 1010.8 0 45.9 43.3 86.0 227.6 254.3 883.7
11 07:40 26.8 83 21.13 23.7 6 6 1010.7 0 45.3 43.1 85.3 225.8 251.9 875.4
11 07:30 26.4 90 22.4 24.6 0 6 1010.7 0 48.1 45.9 92.1 243.8 273.8 951.4
11 07:20 26 92 22.4 24.6 4 6 1010.6 0 48.1 46.1 92.6 245.1 275.3 956.5
11 07:10 25.8 93 22.39 24.6 4 6 1010.4 0 48.1 46.2 92.7 245.6 275.9 958.4
11 07:00 25.7 93 22.27 24.5 6 7 1010.3 0 47.9 46.0 92.2 244.3 274.2 952.7
11 06:50 25.6 93 22.14 24.4 6 7 1010.1 0 47.6 45.8 91.7 242.8 272.4 946.4
11 06:40 25.6 93 22.14 24.4 6 6 1010 0 47.6 45.8 91.7 242.8 272.4 946.3
11 06:30 25.6 92 21.9 24.2 6 7 1010 0 47.1 45.3 90.5 239.6 268.5 932.6
11 06:20 25.6 91 21.66 24 6 6 1009.8 0 46.6 44.8 89.3 236.3 264.5 918.8
11 06:10 25.5 92 21.78 24.1 7 7 1009.7 0 46.9 45.1 90.0 238.2 266.8 926.8
11 06:00 25.4 92 21.66 24 7 9 1009.7 0 46.6 44.9 89.5 236.9 265.2 921.3
11 05:50 25.4 92 21.66 24 7 9 1009.5 0 46.6 44.9 89.5 236.9 265.2 921.1
11 05:40 25.2 92 21.42 23.8 7 9 1009.4 0 46.1 44.5 88.5 234.3 261.9 909.9
11 04:50 25.6 90 21.43 23.8 6 7 1009.2 0 46.1 44.3 88.1 233.2 260.6 905.5
11 04:40 25.6 90 21.43 23.8 7 7 1009.2 0 46.1 44.3 88.1 233.2 260.6 905.5
11 04:30 25.8 90 21.67 24 6 9 1009.2 0 46.6 44.7 89.0 235.7 263.8 916.6
11 04:20 25.7 89 21.31 23.7 6 7 1009.1 0 45.8 44.0 87.3 231.2 258.3 897.5
11 04:10 25.8 90 21.67 24 6 7 1009.1 0 46.6 44.7 89.0 235.7 263.8 916.5
11 04:00 25.9 89 21.55 23.9 4 6 1009.1 0 46.3 44.4 88.3 233.8 261.5 908.5

Last Refresh: 11-Apr-2021 21:24:06

Bureau of Meteorology